sensor_id;sensor_type;location;lat;lon;timestamp;P1;durP1;ratioP1;P2;durP2;ratioP2
74904;SDS011;63465;50.862;6.220;2023-10-09T00:00:50;10.77;;;4.90;;
74904;SDS011;63465;50.862;6.220;2023-10-09T00:03:16;8.60;;;4.53;;
74904;SDS011;63465;50.862;6.220;2023-10-09T00:05:42;7.37;;;4.13;;
74904;SDS011;63465;50.862;6.220;2023-10-09T00:08:11;10.20;;;5.80;;
74904;SDS011;63465;50.862;6.220;2023-10-09T00:10:56;10.20;;;4.33;;
74904;SDS011;63465;50.862;6.220;2023-10-09T00:13:39;8.80;;;4.50;;
74904;SDS011;63465;50.862;6.220;2023-10-09T00:16:14;6.67;;;4.30;;
74904;SDS011;63465;50.862;6.220;2023-10-09T00:18:48;6.20;;;4.07;;
74904;SDS011;63465;50.862;6.220;2023-10-09T00:21:18;5.80;;;4.30;;
74904;SDS011;63465;50.862;6.220;2023-10-09T00:23:48;7.00;;;4.50;;
74904;SDS011;63465;50.862;6.220;2023-10-09T00:26:24;11.00;;;5.20;;
74904;SDS011;63465;50.862;6.220;2023-10-09T00:28:50;9.97;;;4.67;;
74904;SDS011;63465;50.862;6.220;2023-10-09T00:31:17;8.77;;;4.73;;
74904;SDS011;63465;50.862;6.220;2023-10-09T00:33:54;7.47;;;4.80;;
74904;SDS011;63465;50.862;6.220;2023-10-09T00:36:20;6.37;;;5.00;;
74904;SDS011;63465;50.862;6.220;2023-10-09T00:38:53;10.47;;;4.30;;
74904;SDS011;63465;50.862;6.220;2023-10-09T00:41:19;8.50;;;4.67;;
74904;SDS011;63465;50.862;6.220;2023-10-09T00:43:45;9.17;;;4.60;;
74904;SDS011;63465;50.862;6.220;2023-10-09T00:46:14;8.50;;;4.50;;
74904;SDS011;63465;50.862;6.220;2023-10-09T00:48:45;7.90;;;4.87;;
74904;SDS011;63465;50.862;6.220;2023-10-09T00:51:18;7.30;;;4.47;;
74904;SDS011;63465;50.862;6.220;2023-10-09T00:53:44;10.20;;;4.67;;
74904;SDS011;63465;50.862;6.220;2023-10-09T00:56:15;10.60;;;4.90;;
74904;SDS011;63465;50.862;6.220;2023-10-09T00:58:45;9.20;;;4.67;;
74904;SDS011;63465;50.862;6.220;2023-10-09T01:01:12;8.63;;;4.27;;
74904;SDS011;63465;50.862;6.220;2023-10-09T01:03:41;6.90;;;4.30;;
74904;SDS011;63465;50.862;6.220;2023-10-09T01:06:09;11.23;;;4.57;;
74904;SDS011;63465;50.862;6.220;2023-10-09T01:08:37;9.53;;;4.73;;
74904;SDS011;63465;50.862;6.220;2023-10-09T01:11:07;5.53;;;4.20;;
74904;SDS011;63465;50.862;6.220;2023-10-09T01:13:47;10.73;;;5.03;;
74904;SDS011;63465;50.862;6.220;2023-10-09T01:16:13;10.30;;;4.53;;
74904;SDS011;63465;50.862;6.220;2023-10-09T01:18:42;9.90;;;5.13;;
74904;SDS011;63465;50.862;6.220;2023-10-09T01:21:14;10.03;;;5.13;;
74904;SDS011;63465;50.862;6.220;2023-10-09T01:23:41;11.37;;;4.77;;
74904;SDS011;63465;50.862;6.220;2023-10-09T01:26:23;8.17;;;4.33;;
74904;SDS011;63465;50.862;6.220;2023-10-09T01:28:49;7.10;;;4.70;;
74904;SDS011;63465;50.862;6.220;2023-10-09T01:31:15;9.10;;;5.00;;
74904;SDS011;63465;50.862;6.220;2023-10-09T01:33:40;7.63;;;4.80;;
74904;SDS011;63465;50.862;6.220;2023-10-09T01:36:07;12.43;;;5.20;;
74904;SDS011;63465;50.862;6.220;2023-10-09T01:38:34;7.77;;;4.57;;
74904;SDS011;63465;50.862;6.220;2023-10-09T01:41:12;9.57;;;5.30;;
74904;SDS011;63465;50.862;6.220;2023-10-09T01:43:41;9.27;;;4.73;;
74904;SDS011;63465;50.862;6.220;2023-10-09T01:46:10;10.40;;;5.77;;
74904;SDS011;63465;50.862;6.220;2023-10-09T01:48:36;8.17;;;5.10;;
74904;SDS011;63465;50.862;6.220;2023-10-09T01:51:04;8.97;;;5.33;;
74904;SDS011;63465;50.862;6.220;2023-10-09T01:53:30;12.43;;;5.90;;
74904;SDS011;63465;50.862;6.220;2023-10-09T01:55:56;8.67;;;5.27;;
74904;SDS011;63465;50.862;6.220;2023-10-09T01:58:24;9.60;;;5.23;;
74904;SDS011;63465;50.862;6.220;2023-10-09T02:00:52;6.93;;;4.83;;
74904;SDS011;63465;50.862;6.220;2023-10-09T02:03:21;7.70;;;5.17;;
74904;SDS011;63465;50.862;6.220;2023-10-09T02:06:01;8.40;;;5.17;;
74904;SDS011;63465;50.862;6.220;2023-10-09T02:08:42;8.27;;;5.47;;
74904;SDS011;63465;50.862;6.220;2023-10-09T02:11:14;11.60;;;5.33;;
74904;SDS011;63465;50.862;6.220;2023-10-09T02:13:49;9.47;;;5.67;;
74904;SDS011;63465;50.862;6.220;2023-10-09T02:16:18;9.57;;;5.30;;
74904;SDS011;63465;50.862;6.220;2023-10-09T02:18:53;10.40;;;5.53;;
74904;SDS011;63465;50.862;6.220;2023-10-09T02:21:21;9.40;;;5.40;;
74904;SDS011;63465;50.862;6.220;2023-10-09T02:23:59;15.90;;;6.00;;
74904;SDS011;63465;50.862;6.220;2023-10-09T02:26:34;9.47;;;5.30;;
74904;SDS011;63465;50.862;6.220;2023-10-09T02:29:18;8.40;;;4.80;;
74904;SDS011;63465;50.862;6.220;2023-10-09T02:31:43;13.33;;;4.90;;
74904;SDS011;63465;50.862;6.220;2023-10-09T02:34:12;7.50;;;5.00;;
74904;SDS011;63465;50.862;6.220;2023-10-09T02:36:37;9.37;;;5.70;;
74904;SDS011;63465;50.862;6.220;2023-10-09T02:39:07;13.90;;;5.57;;
74904;SDS011;63465;50.862;6.220;2023-10-09T02:41:46;13.60;;;5.90;;
74904;SDS011;63465;50.862;6.220;2023-10-09T02:44:15;9.57;;;5.20;;
74904;SDS011;63465;50.862;6.220;2023-10-09T02:46:40;8.83;;;5.07;;
74904;SDS011;63465;50.862;6.220;2023-10-09T02:49:06;10.10;;;4.87;;
74904;SDS011;63465;50.862;6.220;2023-10-09T02:51:34;9.17;;;4.70;;
74904;SDS011;63465;50.862;6.220;2023-10-09T02:54:06;8.50;;;5.27;;
74904;SDS011;63465;50.862;6.220;2023-10-09T02:56:52;10.30;;;5.37;;
74904;SDS011;63465;50.862;6.220;2023-10-09T02:59:30;12.17;;;4.70;;
74904;SDS011;63465;50.862;6.220;2023-10-09T03:01:55;9.27;;;5.17;;
74904;SDS011;63465;50.862;6.220;2023-10-09T03:04:22;12.90;;;4.90;;
74904;SDS011;63465;50.862;6.220;2023-10-09T03:06:48;7.23;;;5.00;;
74904;SDS011;63465;50.862;6.220;2023-10-09T03:09:17;8.50;;;4.93;;
74904;SDS011;63465;50.862;6.220;2023-10-09T03:11:47;11.83;;;5.50;;
74904;SDS011;63465;50.862;6.220;2023-10-09T03:14:18;6.03;;;4.50;;
74904;SDS011;63465;50.862;6.220;2023-10-09T03:16:45;8.27;;;4.90;;
74904;SDS011;63465;50.862;6.220;2023-10-09T03:19:13;12.33;;;4.40;;
74904;SDS011;63465;50.862;6.220;2023-10-09T03:21:38;12.60;;;5.30;;
74904;SDS011;63465;50.862;6.220;2023-10-09T03:24:04;6.47;;;4.60;;
74904;SDS011;63465;50.862;6.220;2023-10-09T03:26:30;11.90;;;4.90;;
74904;SDS011;63465;50.862;6.220;2023-10-09T03:28:56;14.70;;;5.00;;
74904;SDS011;63465;50.862;6.220;2023-10-09T03:31:26;12.10;;;5.80;;
74904;SDS011;63465;50.862;6.220;2023-10-09T03:33:52;9.77;;;5.27;;
74904;SDS011;63465;50.862;6.220;2023-10-09T03:36:17;10.50;;;5.30;;
74904;SDS011;63465;50.862;6.220;2023-10-09T03:38:42;7.37;;;4.60;;
74904;SDS011;63465;50.862;6.220;2023-10-09T03:41:09;10.83;;;5.00;;
74904;SDS011;63465;50.862;6.220;2023-10-09T03:43:37;7.80;;;5.10;;
74904;SDS011;63465;50.862;6.220;2023-10-09T03:46:05;12.47;;;5.53;;
74904;SDS011;63465;50.862;6.220;2023-10-09T03:48:45;8.67;;;5.37;;
74904;SDS011;63465;50.862;6.220;2023-10-09T03:51:13;7.93;;;5.50;;
74904;SDS011;63465;50.862;6.220;2023-10-09T03:53:46;7.33;;;5.23;;
74904;SDS011;63465;50.862;6.220;2023-10-09T03:56:15;9.17;;;5.53;;
74904;SDS011;63465;50.862;6.220;2023-10-09T03:58:43;7.87;;;4.70;;
74904;SDS011;63465;50.862;6.220;2023-10-09T04:01:13;5.73;;;4.70;;
74904;SDS011;63465;50.862;6.220;2023-10-09T04:03:58;9.20;;;4.83;;
74904;SDS011;63465;50.862;6.220;2023-10-09T04:06:25;10.47;;;5.53;;
74904;SDS011;63465;50.862;6.220;2023-10-09T04:08:55;7.90;;;4.90;;
74904;SDS011;63465;50.862;6.220;2023-10-09T04:11:23;7.93;;;4.50;;
74904;SDS011;63465;50.862;6.220;2023-10-09T04:13:49;11.87;;;6.10;;
74904;SDS011;63465;50.862;6.220;2023-10-09T04:16:17;9.50;;;4.80;;
74904;SDS011;63465;50.862;6.220;2023-10-09T04:18:55;6.57;;;4.83;;
74904;SDS011;63465;50.862;6.220;2023-10-09T04:21:24;8.10;;;5.43;;
74904;SDS011;63465;50.862;6.220;2023-10-09T04:23:59;6.33;;;5.10;;
74904;SDS011;63465;50.862;6.220;2023-10-09T04:26:35;10.30;;;5.50;;
74904;SDS011;63465;50.862;6.220;2023-10-09T04:29:02;9.33;;;4.70;;
74904;SDS011;63465;50.862;6.220;2023-10-09T04:31:28;8.70;;;5.53;;
74904;SDS011;63465;50.862;6.220;2023-10-09T04:33:59;6.90;;;4.87;;
74904;SDS011;63465;50.862;6.220;2023-10-09T04:36:51;12.70;;;5.33;;
74904;SDS011;63465;50.862;6.220;2023-10-09T04:39:22;9.00;;;5.30;;
74904;SDS011;63465;50.862;6.220;2023-10-09T04:41:56;10.13;;;4.97;;
74904;SDS011;63465;50.862;6.220;2023-10-09T04:44:41;12.90;;;5.40;;
74904;SDS011;63465;50.862;6.220;2023-10-09T04:47:34;6.80;;;5.07;;
74904;SDS011;63465;50.862;6.220;2023-10-09T04:50:07;10.97;;;6.07;;
74904;SDS011;63465;50.862;6.220;2023-10-09T04:53:00;12.70;;;5.53;;
74904;SDS011;63465;50.862;6.220;2023-10-09T04:55:41;10.30;;;5.40;;
74904;SDS011;63465;50.862;6.220;2023-10-09T04:58:09;10.10;;;5.33;;
74904;SDS011;63465;50.862;6.220;2023-10-09T05:00:38;11.20;;;6.00;;
74904;SDS011;63465;50.862;6.220;2023-10-09T05:03:07;16.93;;;6.50;;
74904;SDS011;63465;50.862;6.220;2023-10-09T05:05:36;10.77;;;5.00;;
74904;SDS011;63465;50.862;6.220;2023-10-09T05:08:08;7.87;;;5.93;;
74904;SDS011;63465;50.862;6.220;2023-10-09T05:10:53;12.10;;;6.53;;
74904;SDS011;63465;50.862;6.220;2023-10-09T05:13:29;9.57;;;5.17;;
74904;SDS011;63465;50.862;6.220;2023-10-09T05:18:46;9.80;;;6.20;;
74904;SDS011;63465;50.862;6.220;2023-10-09T05:21:24;8.30;;;5.47;;
74904;SDS011;63465;50.862;6.220;2023-10-09T05:23:55;11.23;;;6.63;;
74904;SDS011;63465;50.862;6.220;2023-10-09T05:26:43;15.37;;;6.50;;
74904;SDS011;63465;50.862;6.220;2023-10-09T05:29:13;15.63;;;6.40;;
74904;SDS011;63465;50.862;6.220;2023-10-09T05:31:58;10.83;;;6.67;;
74904;SDS011;63465;50.862;6.220;2023-10-09T05:37:28;9.50;;;5.70;;
74904;SDS011;63465;50.862;6.220;2023-10-09T05:39:59;9.30;;;5.73;;
74904;SDS011;63465;50.862;6.220;2023-10-09T05:42:34;10.90;;;5.77;;
74904;SDS011;63465;50.862;6.220;2023-10-09T05:45:07;12.43;;;5.20;;
74904;SDS011;63465;50.862;6.220;2023-10-09T05:47:42;14.90;;;6.67;;
74904;SDS011;63465;50.862;6.220;2023-10-09T05:50:33;13.87;;;5.77;;
74904;SDS011;63465;50.862;6.220;2023-10-09T05:52:59;12.67;;;6.37;;
74904;SDS011;63465;50.862;6.220;2023-10-09T05:55:42;12.00;;;6.00;;
74904;SDS011;63465;50.862;6.220;2023-10-09T05:58:26;12.70;;;5.20;;
74904;SDS011;63465;50.862;6.220;2023-10-09T06:01:12;12.40;;;5.70;;
74904;SDS011;63465;50.862;6.220;2023-10-09T06:04:07;12.30;;;6.20;;
74904;SDS011;63465;50.862;6.220;2023-10-09T06:06:42;11.20;;;5.83;;
74904;SDS011;63465;50.862;6.220;2023-10-09T06:09:20;11.80;;;5.90;;
74904;SDS011;63465;50.862;6.220;2023-10-09T06:11:47;9.43;;;5.57;;
74904;SDS011;63465;50.862;6.220;2023-10-09T06:14:21;9.73;;;5.70;;
74904;SDS011;63465;50.862;6.220;2023-10-09T06:17:11;8.30;;;5.33;;
74904;SDS011;63465;50.862;6.220;2023-10-09T06:19:37;12.53;;;6.07;;
74904;SDS011;63465;50.862;6.220;2023-10-09T06:22:08;11.23;;;5.60;;
74904;SDS011;63465;50.862;6.220;2023-10-09T06:24:37;9.60;;;6.00;;
74904;SDS011;63465;50.862;6.220;2023-10-09T06:27:03;7.97;;;5.27;;
74904;SDS011;63465;50.862;6.220;2023-10-09T06:29:29;7.20;;;5.00;;
74904;SDS011;63465;50.862;6.220;2023-10-09T06:32:16;10.03;;;5.83;;
74904;SDS011;63465;50.862;6.220;2023-10-09T06:34:58;11.57;;;5.00;;
74904;SDS011;63465;50.862;6.220;2023-10-09T06:37:43;10.93;;;6.33;;
74904;SDS011;63465;50.862;6.220;2023-10-09T06:40:34;12.93;;;6.17;;
74904;SDS011;63465;50.862;6.220;2023-10-09T06:43:19;8.73;;;5.77;;
74904;SDS011;63465;50.862;6.220;2023-10-09T06:48:23;6.87;;;5.00;;
74904;SDS011;63465;50.862;6.220;2023-10-09T06:51:04;10.43;;;5.50;;
74904;SDS011;63465;50.862;6.220;2023-10-09T06:56:18;9.27;;;5.00;;
74904;SDS011;63465;50.862;6.220;2023-10-09T06:58:50;9.27;;;6.40;;
74904;SDS011;63465;50.862;6.220;2023-10-09T07:01:21;10.97;;;6.47;;
74904;SDS011;63465;50.862;6.220;2023-10-09T07:03:53;8.93;;;6.00;;
74904;SDS011;63465;50.862;6.220;2023-10-09T07:06:24;11.43;;;5.70;;
74904;SDS011;63465;50.862;6.220;2023-10-09T07:09:03;10.47;;;5.53;;
74904;SDS011;63465;50.862;6.220;2023-10-09T07:11:34;13.53;;;5.70;;
74904;SDS011;63465;50.862;6.220;2023-10-09T07:16:53;10.23;;;5.40;;
74904;SDS011;63465;50.862;6.220;2023-10-09T07:19:26;11.73;;;5.53;;
74904;SDS011;63465;50.862;6.220;2023-10-09T07:22:03;17.00;;;6.73;;
74904;SDS011;63465;50.862;6.220;2023-10-09T07:24:31;9.97;;;5.27;;
74904;SDS011;63465;50.862;6.220;2023-10-09T07:27:08;12.30;;;5.70;;
74904;SDS011;63465;50.862;6.220;2023-10-09T07:29:39;10.37;;;5.80;;
74904;SDS011;63465;50.862;6.220;2023-10-09T07:32:13;12.23;;;6.00;;
74904;SDS011;63465;50.862;6.220;2023-10-09T07:34:45;11.53;;;5.87;;
74904;SDS011;63465;50.862;6.220;2023-10-09T07:37:25;12.73;;;6.60;;
74904;SDS011;63465;50.862;6.220;2023-10-09T07:40:02;12.87;;;6.23;;
74904;SDS011;63465;50.862;6.220;2023-10-09T07:42:32;11.80;;;6.10;;
74904;SDS011;63465;50.862;6.220;2023-10-09T07:45:00;11.30;;;6.23;;
74904;SDS011;63465;50.862;6.220;2023-10-09T07:47:36;9.23;;;5.73;;
74904;SDS011;63465;50.862;6.220;2023-10-09T07:50:26;12.00;;;6.10;;
74904;SDS011;63465;50.862;6.220;2023-10-09T07:53:13;9.07;;;5.70;;
74904;SDS011;63465;50.862;6.220;2023-10-09T07:56:06;10.37;;;6.93;;
74904;SDS011;63465;50.862;6.220;2023-10-09T07:58:32;12.80;;;6.20;;
74904;SDS011;63465;50.862;6.220;2023-10-09T08:01:10;14.83;;;6.87;;
74904;SDS011;63465;50.862;6.220;2023-10-09T08:04:00;9.07;;;6.20;;
74904;SDS011;63465;50.862;6.220;2023-10-09T08:06:48;12.80;;;6.57;;
74904;SDS011;63465;50.862;6.220;2023-10-09T08:09:13;8.87;;;6.10;;
74904;SDS011;63465;50.862;6.220;2023-10-09T08:11:39;10.60;;;6.17;;
74904;SDS011;63465;50.862;6.220;2023-10-09T08:14:08;14.00;;;6.23;;
74904;SDS011;63465;50.862;6.220;2023-10-09T08:16:46;14.30;;;6.87;;
74904;SDS011;63465;50.862;6.220;2023-10-09T08:19:11;14.60;;;6.47;;
74904;SDS011;63465;50.862;6.220;2023-10-09T08:22:06;13.87;;;7.10;;
74904;SDS011;63465;50.862;6.220;2023-10-09T08:24:49;13.13;;;6.83;;
74904;SDS011;63465;50.862;6.220;2023-10-09T08:27:27;15.63;;;6.17;;
74904;SDS011;63465;50.862;6.220;2023-10-09T08:30:13;13.17;;;7.10;;
74904;SDS011;63465;50.862;6.220;2023-10-09T08:32:42;11.80;;;6.87;;
74904;SDS011;63465;50.862;6.220;2023-10-09T08:35:10;14.43;;;6.80;;
74904;SDS011;63465;50.862;6.220;2023-10-09T08:37:58;13.00;;;7.10;;
74904;SDS011;63465;50.862;6.220;2023-10-09T08:40:35;12.50;;;6.50;;
74904;SDS011;63465;50.862;6.220;2023-10-09T08:43:14;12.37;;;5.93;;
74904;SDS011;63465;50.862;6.220;2023-10-09T08:45:51;21.33;;;7.50;;
74904;SDS011;63465;50.862;6.220;2023-10-09T08:48:19;15.57;;;6.90;;
74904;SDS011;63465;50.862;6.220;2023-10-09T08:50:47;14.03;;;6.80;;
74904;SDS011;63465;50.862;6.220;2023-10-09T08:53:15;13.13;;;6.83;;
74904;SDS011;63465;50.862;6.220;2023-10-09T08:55:41;18.93;;;6.47;;
74904;SDS011;63465;50.862;6.220;2023-10-09T08:58:08;12.30;;;6.57;;
74904;SDS011;63465;50.862;6.220;2023-10-09T09:01:04;10.10;;;6.00;;
74904;SDS011;63465;50.862;6.220;2023-10-09T09:03:38;10.57;;;5.07;;
74904;SDS011;63465;50.862;6.220;2023-10-09T09:06:08;12.83;;;6.27;;
74904;SDS011;63465;50.862;6.220;2023-10-09T09:08:35;14.17;;;5.73;;
74904;SDS011;63465;50.862;6.220;2023-10-09T09:11:08;11.30;;;6.00;;
74904;SDS011;63465;50.862;6.220;2023-10-09T09:13:45;9.13;;;5.60;;
74904;SDS011;63465;50.862;6.220;2023-10-09T09:16:43;13.20;;;6.40;;
74904;SDS011;63465;50.862;6.220;2023-10-09T09:19:13;15.93;;;5.90;;
74904;SDS011;63465;50.862;6.220;2023-10-09T09:21:43;8.73;;;5.70;;
74904;SDS011;63465;50.862;6.220;2023-10-09T09:24:14;10.23;;;5.33;;
74904;SDS011;63465;50.862;6.220;2023-10-09T09:26:46;12.20;;;5.57;;
74904;SDS011;63465;50.862;6.220;2023-10-09T09:29:14;18.13;;;5.80;;
74904;SDS011;63465;50.862;6.220;2023-10-09T09:31:53;9.87;;;5.80;;
74904;SDS011;63465;50.862;6.220;2023-10-09T09:34:20;9.10;;;5.47;;
74904;SDS011;63465;50.862;6.220;2023-10-09T09:36:54;8.53;;;5.23;;
74904;SDS011;63465;50.862;6.220;2023-10-09T09:39:21;9.03;;;5.00;;
74904;SDS011;63465;50.862;6.220;2023-10-09T09:41:59;7.83;;;5.20;;
74904;SDS011;63465;50.862;6.220;2023-10-09T09:44:38;9.57;;;4.60;;
74904;SDS011;63465;50.862;6.220;2023-10-09T09:47:13;12.07;;;5.10;;
74904;SDS011;63465;50.862;6.220;2023-10-09T09:49:51;10.93;;;5.07;;
74904;SDS011;63465;50.862;6.220;2023-10-09T09:52:36;9.60;;;4.83;;
74904;SDS011;63465;50.862;6.220;2023-10-09T09:55:05;11.23;;;4.90;;
74904;SDS011;63465;50.862;6.220;2023-10-09T09:57:40;9.00;;;4.33;;
74904;SDS011;63465;50.862;6.220;2023-10-09T10:00:06;12.20;;;4.40;;
74904;SDS011;63465;50.862;6.220;2023-10-09T10:02:51;15.70;;;4.20;;
74904;SDS011;63465;50.862;6.220;2023-10-09T10:05:21;9.23;;;4.13;;
74904;SDS011;63465;50.862;6.220;2023-10-09T10:07:47;5.90;;;4.00;;
74904;SDS011;63465;50.862;6.220;2023-10-09T10:13:15;6.37;;;4.00;;
74904;SDS011;63465;50.862;6.220;2023-10-09T10:18:21;4.87;;;3.60;;
74904;SDS011;63465;50.862;6.220;2023-10-09T10:21:09;6.90;;;3.83;;
74904;SDS011;63465;50.862;6.220;2023-10-09T10:23:58;5.13;;;3.63;;
74904;SDS011;63465;50.862;6.220;2023-10-09T10:26:31;5.27;;;3.50;;
74904;SDS011;63465;50.862;6.220;2023-10-09T10:34:22;5.90;;;3.67;;
74904;SDS011;63465;50.862;6.220;2023-10-09T10:36:49;5.87;;;3.50;;
74904;SDS011;63465;50.862;6.220;2023-10-09T10:39:23;5.97;;;3.77;;
74904;SDS011;63465;50.862;6.220;2023-10-09T10:42:07;4.47;;;3.30;;
74904;SDS011;63465;50.862;6.220;2023-10-09T10:44:58;5.23;;;3.87;;
74904;SDS011;63465;50.862;6.220;2023-10-09T10:47:27;5.50;;;3.33;;
74904;SDS011;63465;50.862;6.220;2023-10-09T10:50:03;6.27;;;3.60;;
74904;SDS011;63465;50.862;6.220;2023-10-09T10:52:51;7.57;;;3.80;;
74904;SDS011;63465;50.862;6.220;2023-10-09T10:55:22;10.50;;;4.20;;
74904;SDS011;63465;50.862;6.220;2023-10-09T10:58:16;4.77;;;3.53;;
74904;SDS011;63465;50.862;6.220;2023-10-09T11:00:55;11.53;;;3.80;;
74904;SDS011;63465;50.862;6.220;2023-10-09T11:03:25;6.27;;;3.50;;
74904;SDS011;63465;50.862;6.220;2023-10-09T11:06:09;7.53;;;3.40;;
74904;SDS011;63465;50.862;6.220;2023-10-09T11:08:46;7.23;;;3.60;;
74904;SDS011;63465;50.862;6.220;2023-10-09T11:11:19;8.63;;;4.07;;
74904;SDS011;63465;50.862;6.220;2023-10-09T11:13:45;5.60;;;3.37;;
74904;SDS011;63465;50.862;6.220;2023-10-09T11:16:19;5.23;;;3.63;;
74904;SDS011;63465;50.862;6.220;2023-10-09T11:19:07;6.43;;;3.47;;
74904;SDS011;63465;50.862;6.220;2023-10-09T11:21:52;7.57;;;4.10;;
74904;SDS011;63465;50.862;6.220;2023-10-09T11:24:38;14.87;;;3.53;;
74904;SDS011;63465;50.862;6.220;2023-10-09T11:27:05;5.97;;;3.37;;
74904;SDS011;63465;50.862;6.220;2023-10-09T11:29:34;12.33;;;4.40;;
74904;SDS011;63465;50.862;6.220;2023-10-09T11:32:07;6.07;;;3.50;;
74904;SDS011;63465;50.862;6.220;2023-10-09T11:34:42;9.03;;;3.83;;
74904;SDS011;63465;50.862;6.220;2023-10-09T11:37:16;7.63;;;3.87;;
74904;SDS011;63465;50.862;6.220;2023-10-09T11:39:55;6.60;;;3.47;;
74904;SDS011;63465;50.862;6.220;2023-10-09T11:42:22;8.27;;;4.00;;
74904;SDS011;63465;50.862;6.220;2023-10-09T11:45:22;7.17;;;3.90;;
74904;SDS011;63465;50.862;6.220;2023-10-09T11:47:57;11.27;;;4.00;;
74904;SDS011;63465;50.862;6.220;2023-10-09T11:53:08;7.37;;;4.10;;
74904;SDS011;63465;50.862;6.220;2023-10-09T11:55:35;9.03;;;4.00;;
74904;SDS011;63465;50.862;6.220;2023-10-09T11:58:02;4.53;;;3.80;;
74904;SDS011;63465;50.862;6.220;2023-10-09T12:00:30;5.20;;;3.60;;
74904;SDS011;63465;50.862;6.220;2023-10-09T12:03:09;10.80;;;4.33;;
74904;SDS011;63465;50.862;6.220;2023-10-09T12:05:36;7.80;;;3.97;;
74904;SDS011;63465;50.862;6.220;2023-10-09T12:08:03;7.00;;;3.80;;
74904;SDS011;63465;50.862;6.220;2023-10-09T12:10:33;8.60;;;4.10;;
74904;SDS011;63465;50.862;6.220;2023-10-09T12:12:59;10.33;;;4.07;;
74904;SDS011;63465;50.862;6.220;2023-10-09T12:15:29;6.30;;;3.60;;
74904;SDS011;63465;50.862;6.220;2023-10-09T12:18:06;4.40;;;3.40;;
74904;SDS011;63465;50.862;6.220;2023-10-09T12:20:34;4.67;;;3.20;;
74904;SDS011;63465;50.862;6.220;2023-10-09T12:23:01;7.73;;;3.63;;
74904;SDS011;63465;50.862;6.220;2023-10-09T12:25:34;9.63;;;3.70;;
74904;SDS011;63465;50.862;6.220;2023-10-09T12:28:00;7.20;;;3.90;;
74904;SDS011;63465;50.862;6.220;2023-10-09T12:30:30;9.47;;;3.87;;
74904;SDS011;63465;50.862;6.220;2023-10-09T12:32:56;11.13;;;3.67;;
74904;SDS011;63465;50.862;6.220;2023-10-09T12:35:23;8.00;;;3.47;;
74904;SDS011;63465;50.862;6.220;2023-10-09T12:37:50;6.43;;;3.60;;
74904;SDS011;63465;50.862;6.220;2023-10-09T12:40:19;9.87;;;4.27;;
74904;SDS011;63465;50.862;6.220;2023-10-09T12:42:54;6.77;;;3.30;;
74904;SDS011;63465;50.862;6.220;2023-10-09T12:45:21;10.30;;;3.60;;
74904;SDS011;63465;50.862;6.220;2023-10-09T12:47:53;11.40;;;4.17;;
74904;SDS011;63465;50.862;6.220;2023-10-09T12:50:24;6.50;;;3.47;;
74904;SDS011;63465;50.862;6.220;2023-10-09T12:52:58;11.80;;;4.13;;
74904;SDS011;63465;50.862;6.220;2023-10-09T12:55:28;10.17;;;3.57;;
74904;SDS011;63465;50.862;6.220;2023-10-09T12:57:59;9.20;;;3.93;;
74904;SDS011;63465;50.862;6.220;2023-10-09T13:00:26;9.33;;;3.80;;
74904;SDS011;63465;50.862;6.220;2023-10-09T13:02:57;11.13;;;4.13;;
74904;SDS011;63465;50.862;6.220;2023-10-09T13:05:26;9.53;;;3.90;;
74904;SDS011;63465;50.862;6.220;2023-10-09T13:07:52;6.63;;;3.80;;
74904;SDS011;63465;50.862;6.220;2023-10-09T13:10:26;12.63;;;3.90;;
74904;SDS011;63465;50.862;6.220;2023-10-09T13:12:56;7.50;;;4.13;;
74904;SDS011;63465;50.862;6.220;2023-10-09T13:15:22;6.70;;;3.50;;
74904;SDS011;63465;50.862;6.220;2023-10-09T13:17:47;10.80;;;4.70;;
74904;SDS011;63465;50.862;6.220;2023-10-09T13:20:12;9.57;;;4.23;;
74904;SDS011;63465;50.862;6.220;2023-10-09T13:22:38;11.40;;;4.10;;
74904;SDS011;63465;50.862;6.220;2023-10-09T13:25:05;10.07;;;3.87;;
74904;SDS011;63465;50.862;6.220;2023-10-09T13:27:30;7.83;;;3.57;;
74904;SDS011;63465;50.862;6.220;2023-10-09T13:29:59;6.47;;;3.67;;
74904;SDS011;63465;50.862;6.220;2023-10-09T13:32:31;7.10;;;4.20;;
74904;SDS011;63465;50.862;6.220;2023-10-09T13:35:01;6.50;;;3.57;;
74904;SDS011;63465;50.862;6.220;2023-10-09T13:37:29;8.03;;;3.80;;
74904;SDS011;63465;50.862;6.220;2023-10-09T13:39:57;5.30;;;3.93;;
74904;SDS011;63465;50.862;6.220;2023-10-09T13:42:22;9.97;;;4.10;;
74904;SDS011;63465;50.862;6.220;2023-10-09T13:44:51;10.03;;;3.70;;
74904;SDS011;63465;50.862;6.220;2023-10-09T13:47:20;7.03;;;4.50;;
74904;SDS011;63465;50.862;6.220;2023-10-09T13:49:46;6.57;;;3.77;;
74904;SDS011;63465;50.862;6.220;2023-10-09T13:52:16;8.07;;;4.10;;
74904;SDS011;63465;50.862;6.220;2023-10-09T13:54:43;14.83;;;4.67;;
74904;SDS011;63465;50.862;6.220;2023-10-09T13:57:13;9.33;;;4.30;;
74904;SDS011;63465;50.862;6.220;2023-10-09T13:59:40;10.43;;;4.43;;
74904;SDS011;63465;50.862;6.220;2023-10-09T14:02:14;10.73;;;5.00;;
74904;SDS011;63465;50.862;6.220;2023-10-09T14:04:44;8.67;;;4.67;;
74904;SDS011;63465;50.862;6.220;2023-10-09T14:07:11;6.50;;;4.20;;
74904;SDS011;63465;50.862;6.220;2023-10-09T14:09:41;7.43;;;4.60;;
74904;SDS011;63465;50.862;6.220;2023-10-09T14:12:09;9.83;;;4.20;;
74904;SDS011;63465;50.862;6.220;2023-10-09T14:17:04;8.83;;;3.93;;
74904;SDS011;63465;50.862;6.220;2023-10-09T14:19:36;10.67;;;5.00;;
74904;SDS011;63465;50.862;6.220;2023-10-09T14:22:02;10.63;;;4.67;;
74904;SDS011;63465;50.862;6.220;2023-10-09T14:24:30;13.10;;;4.70;;
74904;SDS011;63465;50.862;6.220;2023-10-09T14:26:58;9.83;;;4.83;;
74904;SDS011;63465;50.862;6.220;2023-10-09T14:29:31;9.17;;;5.23;;
74904;SDS011;63465;50.862;6.220;2023-10-09T14:31:57;11.53;;;5.23;;
74904;SDS011;63465;50.862;6.220;2023-10-09T14:34:26;12.27;;;4.60;;
74904;SDS011;63465;50.862;6.220;2023-10-09T14:37:00;15.50;;;4.70;;
74904;SDS011;63465;50.862;6.220;2023-10-09T14:39:27;6.50;;;4.30;;
74904;SDS011;63465;50.862;6.220;2023-10-09T14:41:53;10.40;;;4.97;;
74904;SDS011;63465;50.862;6.220;2023-10-09T14:44:20;10.57;;;4.90;;
74904;SDS011;63465;50.862;6.220;2023-10-09T14:46:45;11.20;;;5.30;;
74904;SDS011;63465;50.862;6.220;2023-10-09T14:49:11;7.30;;;4.70;;
74904;SDS011;63465;50.862;6.220;2023-10-09T14:51:39;9.97;;;5.17;;
74904;SDS011;63465;50.862;6.220;2023-10-09T14:54:04;10.20;;;4.50;;
74904;SDS011;63465;50.862;6.220;2023-10-09T14:56:32;16.67;;;4.90;;
74904;SDS011;63465;50.862;6.220;2023-10-09T14:59:01;10.10;;;4.77;;
74904;SDS011;63465;50.862;6.220;2023-10-09T15:01:27;13.30;;;4.87;;
74904;SDS011;63465;50.862;6.220;2023-10-09T15:03:55;7.50;;;4.37;;
74904;SDS011;63465;50.862;6.220;2023-10-09T15:06:22;9.37;;;5.17;;
74904;SDS011;63465;50.862;6.220;2023-10-09T15:08:48;11.53;;;4.77;;
74904;SDS011;63465;50.862;6.220;2023-10-09T15:11:14;9.77;;;4.40;;
74904;SDS011;63465;50.862;6.220;2023-10-09T15:13:40;8.77;;;4.70;;
74904;SDS011;63465;50.862;6.220;2023-10-09T15:16:05;10.03;;;4.70;;
74904;SDS011;63465;50.862;6.220;2023-10-09T15:18:30;9.53;;;4.60;;
74904;SDS011;63465;50.862;6.220;2023-10-09T15:20:58;12.07;;;5.20;;
74904;SDS011;63465;50.862;6.220;2023-10-09T15:23:24;8.87;;;5.70;;
74904;SDS011;63465;50.862;6.220;2023-10-09T15:25:49;19.13;;;5.40;;
74904;SDS011;63465;50.862;6.220;2023-10-09T15:28:17;13.53;;;5.60;;
74904;SDS011;63465;50.862;6.220;2023-10-09T15:30:44;14.30;;;5.50;;
74904;SDS011;63465;50.862;6.220;2023-10-09T15:33:13;10.73;;;5.10;;
74904;SDS011;63465;50.862;6.220;2023-10-09T15:35:41;10.83;;;5.47;;
74904;SDS011;63465;50.862;6.220;2023-10-09T15:38:07;21.33;;;5.90;;
74904;SDS011;63465;50.862;6.220;2023-10-09T15:40:37;9.47;;;4.50;;